sensor_id;sensor_type;location;lat;lon;timestamp;P1;durP1;ratioP1;P2;durP2;ratioP2
22644;SDS011;11489;50.834;6.752;2024-01-16T00:01:09;16.03;;;7.07;;
22644;SDS011;11489;50.834;6.752;2024-01-16T00:03:36;11.53;;;6.90;;
22644;SDS011;11489;50.834;6.752;2024-01-16T00:06:03;14.77;;;7.07;;
22644;SDS011;11489;50.834;6.752;2024-01-16T00:08:29;14.03;;;6.60;;
22644;SDS011;11489;50.834;6.752;2024-01-16T00:10:55;14.77;;;6.40;;
22644;SDS011;11489;50.834;6.752;2024-01-16T00:13:20;12.97;;;6.40;;
22644;SDS011;11489;50.834;6.752;2024-01-16T00:15:46;13.13;;;6.00;;
22644;SDS011;11489;50.834;6.752;2024-01-16T00:18:12;12.67;;;6.10;;
22644;SDS011;11489;50.834;6.752;2024-01-16T00:20:37;13.43;;;6.03;;
22644;SDS011;11489;50.834;6.752;2024-01-16T00:23:03;13.10;;;6.60;;
22644;SDS011;11489;50.834;6.752;2024-01-16T00:25:29;12.70;;;5.33;;
22644;SDS011;11489;50.834;6.752;2024-01-16T00:27:54;12.67;;;5.17;;
22644;SDS011;11489;50.834;6.752;2024-01-16T00:30:20;11.03;;;5.87;;
22644;SDS011;11489;50.834;6.752;2024-01-16T00:32:46;10.40;;;6.13;;
22644;SDS011;11489;50.834;6.752;2024-01-16T00:35:12;12.47;;;5.47;;
22644;SDS011;11489;50.834;6.752;2024-01-16T00:37:38;9.83;;;5.50;;
22644;SDS011;11489;50.834;6.752;2024-01-16T00:40:04;10.57;;;5.60;;
22644;SDS011;11489;50.834;6.752;2024-01-16T00:42:33;13.97;;;6.07;;
22644;SDS011;11489;50.834;6.752;2024-01-16T00:44:59;11.13;;;5.60;;
22644;SDS011;11489;50.834;6.752;2024-01-16T00:47:25;14.60;;;5.83;;
22644;SDS011;11489;50.834;6.752;2024-01-16T00:49:51;10.63;;;5.17;;
22644;SDS011;11489;50.834;6.752;2024-01-16T00:52:17;12.23;;;6.20;;
22644;SDS011;11489;50.834;6.752;2024-01-16T00:54:44;16.47;;;6.17;;
22644;SDS011;11489;50.834;6.752;2024-01-16T00:57:10;10.77;;;5.43;;
22644;SDS011;11489;50.834;6.752;2024-01-16T00:59:36;12.97;;;5.60;;
22644;SDS011;11489;50.834;6.752;2024-01-16T01:02:02;13.13;;;5.40;;
22644;SDS011;11489;50.834;6.752;2024-01-16T01:04:29;12.87;;;5.40;;
22644;SDS011;11489;50.834;6.752;2024-01-16T01:06:54;17.60;;;5.33;;
22644;SDS011;11489;50.834;6.752;2024-01-16T01:09:20;9.97;;;5.07;;
22644;SDS011;11489;50.834;6.752;2024-01-16T01:11:46;12.33;;;5.67;;
22644;SDS011;11489;50.834;6.752;2024-01-16T01:14:12;10.87;;;5.17;;
22644;SDS011;11489;50.834;6.752;2024-01-16T01:16:38;13.00;;;5.27;;
22644;SDS011;11489;50.834;6.752;2024-01-16T01:19:03;10.60;;;4.90;;
22644;SDS011;11489;50.834;6.752;2024-01-16T01:21:29;9.87;;;5.10;;
22644;SDS011;11489;50.834;6.752;2024-01-16T01:23:55;10.07;;;4.90;;
22644;SDS011;11489;50.834;6.752;2024-01-16T01:26:20;9.17;;;5.10;;
22644;SDS011;11489;50.834;6.752;2024-01-16T01:28:46;11.17;;;5.00;;
22644;SDS011;11489;50.834;6.752;2024-01-16T01:31:12;13.50;;;5.17;;
22644;SDS011;11489;50.834;6.752;2024-01-16T01:33:37;11.53;;;5.30;;
22644;SDS011;11489;50.834;6.752;2024-01-16T01:36:04;15.80;;;5.67;;
22644;SDS011;11489;50.834;6.752;2024-01-16T01:38:30;9.80;;;5.13;;
22644;SDS011;11489;50.834;6.752;2024-01-16T01:40:55;10.10;;;5.77;;
22644;SDS011;11489;50.834;6.752;2024-01-16T01:43:22;12.33;;;5.20;;
22644;SDS011;11489;50.834;6.752;2024-01-16T01:48:36;13.67;;;4.70;;
22644;SDS011;11489;50.834;6.752;2024-01-16T01:51:03;13.00;;;5.60;;
22644;SDS011;11489;50.834;6.752;2024-01-16T01:53:29;12.93;;;5.47;;
22644;SDS011;11489;50.834;6.752;2024-01-16T01:55:56;15.40;;;5.57;;
22644;SDS011;11489;50.834;6.752;2024-01-16T01:58:22;11.77;;;5.40;;
22644;SDS011;11489;50.834;6.752;2024-01-16T02:00:48;12.20;;;5.07;;
22644;SDS011;11489;50.834;6.752;2024-01-16T02:03:14;13.70;;;5.00;;
22644;SDS011;11489;50.834;6.752;2024-01-16T02:05:40;14.60;;;5.77;;
22644;SDS011;11489;50.834;6.752;2024-01-16T02:08:07;10.93;;;5.13;;
22644;SDS011;11489;50.834;6.752;2024-01-16T02:10:34;13.83;;;5.30;;
22644;SDS011;11489;50.834;6.752;2024-01-16T02:13:03;9.33;;;4.50;;
22644;SDS011;11489;50.834;6.752;2024-01-16T02:15:28;12.50;;;5.83;;
22644;SDS011;11489;50.834;6.752;2024-01-16T02:17:54;11.73;;;5.27;;
22644;SDS011;11489;50.834;6.752;2024-01-16T02:20:20;11.50;;;4.70;;
22644;SDS011;11489;50.834;6.752;2024-01-16T02:22:46;12.30;;;5.50;;
22644;SDS011;11489;50.834;6.752;2024-01-16T02:25:14;11.17;;;4.97;;
22644;SDS011;11489;50.834;6.752;2024-01-16T02:27:40;12.23;;;5.70;;
22644;SDS011;11489;50.834;6.752;2024-01-16T02:30:05;15.90;;;5.10;;
22644;SDS011;11489;50.834;6.752;2024-01-16T02:32:31;10.10;;;5.00;;
22644;SDS011;11489;50.834;6.752;2024-01-16T02:34:57;15.57;;;5.33;;
22644;SDS011;11489;50.834;6.752;2024-01-16T02:37:24;12.03;;;5.57;;
22644;SDS011;11489;50.834;6.752;2024-01-16T02:39:49;11.77;;;5.30;;
22644;SDS011;11489;50.834;6.752;2024-01-16T02:42:15;12.70;;;6.10;;
22644;SDS011;11489;50.834;6.752;2024-01-16T02:44:41;15.73;;;5.70;;
22644;SDS011;11489;50.834;6.752;2024-01-16T02:47:06;15.03;;;5.73;;
22644;SDS011;11489;50.834;6.752;2024-01-16T02:49:32;11.67;;;5.30;;
22644;SDS011;11489;50.834;6.752;2024-01-16T02:51:58;13.47;;;5.20;;
22644;SDS011;11489;50.834;6.752;2024-01-16T02:54:24;12.90;;;5.47;;
22644;SDS011;11489;50.834;6.752;2024-01-16T02:56:49;11.13;;;5.17;;
22644;SDS011;11489;50.834;6.752;2024-01-16T02:59:15;12.20;;;5.10;;
22644;SDS011;11489;50.834;6.752;2024-01-16T03:01:42;15.43;;;5.90;;
22644;SDS011;11489;50.834;6.752;2024-01-16T03:04:08;13.73;;;5.37;;
22644;SDS011;11489;50.834;6.752;2024-01-16T03:06:34;15.23;;;5.77;;
22644;SDS011;11489;50.834;6.752;2024-01-16T03:08:59;12.43;;;5.40;;
22644;SDS011;11489;50.834;6.752;2024-01-16T03:11:25;15.00;;;5.70;;
22644;SDS011;11489;50.834;6.752;2024-01-16T03:13:51;9.87;;;5.27;;
22644;SDS011;11489;50.834;6.752;2024-01-16T03:16:18;11.23;;;5.70;;
22644;SDS011;11489;50.834;6.752;2024-01-16T03:18:44;10.37;;;5.13;;
22644;SDS011;11489;50.834;6.752;2024-01-16T03:21:10;12.57;;;5.43;;
22644;SDS011;11489;50.834;6.752;2024-01-16T03:23:38;13.67;;;5.50;;
22644;SDS011;11489;50.834;6.752;2024-01-16T03:26:03;11.97;;;5.50;;
22644;SDS011;11489;50.834;6.752;2024-01-16T03:28:29;11.07;;;5.83;;
22644;SDS011;11489;50.834;6.752;2024-01-16T03:30:55;12.20;;;5.80;;
22644;SDS011;11489;50.834;6.752;2024-01-16T03:33:20;9.80;;;5.97;;
22644;SDS011;11489;50.834;6.752;2024-01-16T03:35:46;12.83;;;6.07;;
22644;SDS011;11489;50.834;6.752;2024-01-16T03:38:12;12.90;;;5.57;;
22644;SDS011;11489;50.834;6.752;2024-01-16T03:40:39;10.63;;;6.30;;
22644;SDS011;11489;50.834;6.752;2024-01-16T03:43:04;12.80;;;6.20;;
22644;SDS011;11489;50.834;6.752;2024-01-16T03:45:31;10.50;;;5.70;;
22644;SDS011;11489;50.834;6.752;2024-01-16T03:47:56;10.93;;;6.13;;
22644;SDS011;11489;50.834;6.752;2024-01-16T03:50:23;14.90;;;6.13;;
22644;SDS011;11489;50.834;6.752;2024-01-16T03:52:48;13.37;;;6.23;;
22644;SDS011;11489;50.834;6.752;2024-01-16T03:55:14;12.63;;;6.27;;
22644;SDS011;11489;50.834;6.752;2024-01-16T03:57:40;12.67;;;6.23;;
22644;SDS011;11489;50.834;6.752;2024-01-16T04:00:05;13.80;;;6.20;;
22644;SDS011;11489;50.834;6.752;2024-01-16T04:02:32;11.70;;;6.77;;
22644;SDS011;11489;50.834;6.752;2024-01-16T04:04:57;13.80;;;6.87;;
22644;SDS011;11489;50.834;6.752;2024-01-16T04:07:23;13.40;;;6.40;;
22644;SDS011;11489;50.834;6.752;2024-01-16T04:09:51;13.73;;;6.27;;
22644;SDS011;11489;50.834;6.752;2024-01-16T04:12:17;10.77;;;5.97;;
22644;SDS011;11489;50.834;6.752;2024-01-16T04:14:43;13.03;;;6.50;;
22644;SDS011;11489;50.834;6.752;2024-01-16T04:17:08;16.97;;;7.10;;
22644;SDS011;11489;50.834;6.752;2024-01-16T04:19:34;15.33;;;7.20;;
22644;SDS011;11489;50.834;6.752;2024-01-16T04:22:00;14.10;;;6.23;;
22644;SDS011;11489;50.834;6.752;2024-01-16T04:24:30;10.70;;;6.10;;
22644;SDS011;11489;50.834;6.752;2024-01-16T04:26:56;12.43;;;6.30;;
22644;SDS011;11489;50.834;6.752;2024-01-16T04:29:21;15.80;;;6.10;;
22644;SDS011;11489;50.834;6.752;2024-01-16T04:31:48;14.27;;;6.47;;
22644;SDS011;11489;50.834;6.752;2024-01-16T04:34:13;13.37;;;6.97;;
22644;SDS011;11489;50.834;6.752;2024-01-16T04:36:39;12.53;;;6.20;;
22644;SDS011;11489;50.834;6.752;2024-01-16T04:39:05;13.70;;;6.30;;
22644;SDS011;11489;50.834;6.752;2024-01-16T04:41:30;12.40;;;6.47;;
22644;SDS011;11489;50.834;6.752;2024-01-16T04:43:56;13.37;;;6.73;;
22644;SDS011;11489;50.834;6.752;2024-01-16T04:46:21;12.23;;;6.40;;
22644;SDS011;11489;50.834;6.752;2024-01-16T04:48:47;12.03;;;6.47;;
22644;SDS011;11489;50.834;6.752;2024-01-16T04:51:13;15.37;;;6.60;;
22644;SDS011;11489;50.834;6.752;2024-01-16T04:53:38;15.57;;;6.40;;
22644;SDS011;11489;50.834;6.752;2024-01-16T04:56:05;15.23;;;6.53;;
22644;SDS011;11489;50.834;6.752;2024-01-16T04:58:31;18.43;;;6.77;;
22644;SDS011;11489;50.834;6.752;2024-01-16T05:00:57;13.27;;;6.00;;
22644;SDS011;11489;50.834;6.752;2024-01-16T05:03:23;15.17;;;6.00;;
22644;SDS011;11489;50.834;6.752;2024-01-16T05:05:49;14.50;;;6.20;;
22644;SDS011;11489;50.834;6.752;2024-01-16T05:08:14;10.33;;;5.40;;
22644;SDS011;11489;50.834;6.752;2024-01-16T05:10:40;12.93;;;6.20;;
22644;SDS011;11489;50.834;6.752;2024-01-16T05:13:06;14.57;;;6.00;;
22644;SDS011;11489;50.834;6.752;2024-01-16T05:15:31;17.70;;;5.77;;
22644;SDS011;11489;50.834;6.752;2024-01-16T05:17:57;12.17;;;5.87;;
22644;SDS011;11489;50.834;6.752;2024-01-16T05:20:22;13.60;;;6.07;;
22644;SDS011;11489;50.834;6.752;2024-01-16T05:22:48;12.83;;;5.50;;
22644;SDS011;11489;50.834;6.752;2024-01-16T05:25:14;12.37;;;5.17;;
22644;SDS011;11489;50.834;6.752;2024-01-16T05:27:42;12.90;;;5.63;;
22644;SDS011;11489;50.834;6.752;2024-01-16T05:30:08;11.73;;;5.83;;
22644;SDS011;11489;50.834;6.752;2024-01-16T05:32:35;12.30;;;5.73;;
22644;SDS011;11489;50.834;6.752;2024-01-16T05:35:00;11.60;;;6.03;;
22644;SDS011;11489;50.834;6.752;2024-01-16T05:37:26;13.47;;;5.20;;
22644;SDS011;11489;50.834;6.752;2024-01-16T05:39:54;11.27;;;5.80;;
22644;SDS011;11489;50.834;6.752;2024-01-16T05:42:20;17.70;;;5.53;;
22644;SDS011;11489;50.834;6.752;2024-01-16T05:44:45;11.33;;;5.37;;
22644;SDS011;11489;50.834;6.752;2024-01-16T05:47:11;16.60;;;5.37;;
22644;SDS011;11489;50.834;6.752;2024-01-16T05:49:37;8.97;;;5.10;;
22644;SDS011;11489;50.834;6.752;2024-01-16T05:52:03;11.77;;;5.13;;
22644;SDS011;11489;50.834;6.752;2024-01-16T05:54:29;8.27;;;4.57;;
22644;SDS011;11489;50.834;6.752;2024-01-16T05:56:54;13.13;;;4.30;;
22644;SDS011;11489;50.834;6.752;2024-01-16T05:59:20;14.30;;;5.07;;
22644;SDS011;11489;50.834;6.752;2024-01-16T06:01:45;10.20;;;4.40;;
22644;SDS011;11489;50.834;6.752;2024-01-16T06:04:11;16.03;;;4.80;;
22644;SDS011;11489;50.834;6.752;2024-01-16T06:06:37;12.40;;;4.27;;
22644;SDS011;11489;50.834;6.752;2024-01-16T06:09:02;16.37;;;4.30;;
22644;SDS011;11489;50.834;6.752;2024-01-16T06:11:33;12.23;;;4.60;;
22644;SDS011;11489;50.834;6.752;2024-01-16T06:14:03;13.10;;;4.40;;
22644;SDS011;11489;50.834;6.752;2024-01-16T06:16:29;12.63;;;4.23;;
22644;SDS011;11489;50.834;6.752;2024-01-16T06:18:55;8.00;;;3.83;;
22644;SDS011;11489;50.834;6.752;2024-01-16T06:21:20;12.67;;;4.30;;
22644;SDS011;11489;50.834;6.752;2024-01-16T06:23:46;8.73;;;3.63;;
22644;SDS011;11489;50.834;6.752;2024-01-16T06:26:11;9.20;;;3.90;;
22644;SDS011;11489;50.834;6.752;2024-01-16T06:28:37;10.83;;;3.97;;
22644;SDS011;11489;50.834;6.752;2024-01-16T06:31:03;8.13;;;3.20;;
22644;SDS011;11489;50.834;6.752;2024-01-16T06:33:29;12.77;;;3.70;;
22644;SDS011;11489;50.834;6.752;2024-01-16T06:35:54;10.47;;;3.50;;
22644;SDS011;11489;50.834;6.752;2024-01-16T06:38:20;12.97;;;3.57;;
22644;SDS011;11489;50.834;6.752;2024-01-16T06:40:46;8.63;;;3.00;;
22644;SDS011;11489;50.834;6.752;2024-01-16T06:43:12;13.50;;;3.40;;
22644;SDS011;11489;50.834;6.752;2024-01-16T06:45:41;11.40;;;3.47;;
22644;SDS011;11489;50.834;6.752;2024-01-16T06:48:07;10.03;;;3.10;;
22644;SDS011;11489;50.834;6.752;2024-01-16T06:50:33;9.77;;;3.47;;
22644;SDS011;11489;50.834;6.752;2024-01-16T06:52:59;7.40;;;3.07;;
22644;SDS011;11489;50.834;6.752;2024-01-16T06:55:24;9.53;;;3.10;;
22644;SDS011;11489;50.834;6.752;2024-01-16T06:57:50;9.57;;;2.70;;
22644;SDS011;11489;50.834;6.752;2024-01-16T07:00:16;11.97;;;3.40;;
22644;SDS011;11489;50.834;6.752;2024-01-16T07:02:42;7.00;;;2.73;;
22644;SDS011;11489;50.834;6.752;2024-01-16T07:05:13;10.80;;;3.23;;
22644;SDS011;11489;50.834;6.752;2024-01-16T07:07:39;6.93;;;2.80;;
22644;SDS011;11489;50.834;6.752;2024-01-16T07:10:05;13.17;;;2.73;;
22644;SDS011;11489;50.834;6.752;2024-01-16T07:12:33;7.97;;;2.60;;
22644;SDS011;11489;50.834;6.752;2024-01-16T07:14:59;14.93;;;3.30;;
22644;SDS011;11489;50.834;6.752;2024-01-16T07:17:25;11.93;;;3.20;;
22644;SDS011;11489;50.834;6.752;2024-01-16T07:19:50;10.73;;;3.00;;
22644;SDS011;11489;50.834;6.752;2024-01-16T07:22:16;8.70;;;3.03;;
22644;SDS011;11489;50.834;6.752;2024-01-16T07:24:42;11.37;;;2.97;;
22644;SDS011;11489;50.834;6.752;2024-01-16T07:27:08;8.67;;;3.00;;
22644;SDS011;11489;50.834;6.752;2024-01-16T07:29:33;13.17;;;2.93;;
22644;SDS011;11489;50.834;6.752;2024-01-16T07:31:59;7.87;;;2.73;;
22644;SDS011;11489;50.834;6.752;2024-01-16T07:34:25;9.13;;;2.70;;
22644;SDS011;11489;50.834;6.752;2024-01-16T07:36:50;7.13;;;2.80;;
22644;SDS011;11489;50.834;6.752;2024-01-16T07:39:16;6.63;;;2.60;;
22644;SDS011;11489;50.834;6.752;2024-01-16T07:41:42;6.03;;;2.70;;
22644;SDS011;11489;50.834;6.752;2024-01-16T07:44:07;8.70;;;2.60;;
22644;SDS011;11489;50.834;6.752;2024-01-16T07:46:33;6.93;;;2.57;;
22644;SDS011;11489;50.834;6.752;2024-01-16T07:48:59;14.90;;;2.93;;
22644;SDS011;11489;50.834;6.752;2024-01-16T07:51:25;8.47;;;2.43;;
22644;SDS011;11489;50.834;6.752;2024-01-16T07:53:59;6.13;;;2.50;;
22644;SDS011;11489;50.834;6.752;2024-01-16T07:56:33;9.20;;;2.60;;
22644;SDS011;11489;50.834;6.752;2024-01-16T07:58:59;6.90;;;2.20;;
22644;SDS011;11489;50.834;6.752;2024-01-16T08:01:26;6.20;;;2.30;;
22644;SDS011;11489;50.834;6.752;2024-01-16T08:03:53;4.47;;;2.40;;
22644;SDS011;11489;50.834;6.752;2024-01-16T08:06:20;5.07;;;2.37;;
22644;SDS011;11489;50.834;6.752;2024-01-16T08:08:45;5.60;;;2.50;;
22644;SDS011;11489;50.834;6.752;2024-01-16T08:11:11;10.97;;;2.80;;
22644;SDS011;11489;50.834;6.752;2024-01-16T08:13:37;7.13;;;2.40;;
22644;SDS011;11489;50.834;6.752;2024-01-16T08:16:03;7.70;;;2.77;;
22644;SDS011;11489;50.834;6.752;2024-01-16T08:18:29;6.50;;;2.50;;
22644;SDS011;11489;50.834;6.752;2024-01-16T08:20:56;10.43;;;2.47;;
22644;SDS011;11489;50.834;6.752;2024-01-16T08:23:22;6.23;;;2.43;;
22644;SDS011;11489;50.834;6.752;2024-01-16T08:25:48;8.07;;;3.00;;
22644;SDS011;11489;50.834;6.752;2024-01-16T08:28:14;9.23;;;2.90;;
22644;SDS011;11489;50.834;6.752;2024-01-16T08:30:40;9.23;;;3.40;;
22644;SDS011;11489;50.834;6.752;2024-01-16T08:33:06;6.73;;;3.17;;
22644;SDS011;11489;50.834;6.752;2024-01-16T08:35:32;9.90;;;2.80;;
22644;SDS011;11489;50.834;6.752;2024-01-16T08:37:58;6.70;;;2.77;;
22644;SDS011;11489;50.834;6.752;2024-01-16T08:40:24;7.30;;;3.07;;
22644;SDS011;11489;50.834;6.752;2024-01-16T08:42:50;6.30;;;3.00;;
22644;SDS011;11489;50.834;6.752;2024-01-16T08:45:20;6.97;;;3.03;;
22644;SDS011;11489;50.834;6.752;2024-01-16T08:47:46;8.83;;;2.97;;
22644;SDS011;11489;50.834;6.752;2024-01-16T08:50:12;6.93;;;3.03;;
22644;SDS011;11489;50.834;6.752;2024-01-16T08:52:39;8.43;;;3.07;;
22644;SDS011;11489;50.834;6.752;2024-01-16T08:55:05;8.77;;;3.20;;
22644;SDS011;11489;50.834;6.752;2024-01-16T08:57:31;5.47;;;2.93;;
22644;SDS011;11489;50.834;6.752;2024-01-16T08:59:56;4.70;;;2.60;;
22644;SDS011;11489;50.834;6.752;2024-01-16T09:02:22;6.80;;;2.83;;
22644;SDS011;11489;50.834;6.752;2024-01-16T09:04:49;11.77;;;3.20;;
22644;SDS011;11489;50.834;6.752;2024-01-16T09:07:18;14.47;;;3.20;;
22644;SDS011;11489;50.834;6.752;2024-01-16T09:09:44;7.20;;;3.23;;
22644;SDS011;11489;50.834;6.752;2024-01-16T09:12:09;10.10;;;3.50;;
22644;SDS011;11489;50.834;6.752;2024-01-16T09:14:35;7.90;;;2.60;;
22644;SDS011;11489;50.834;6.752;2024-01-16T09:17:01;9.57;;;3.03;;
22644;SDS011;11489;50.834;6.752;2024-01-16T09:19:28;8.20;;;2.70;;
22644;SDS011;11489;50.834;6.752;2024-01-16T09:21:54;4.80;;;2.60;;
22644;SDS011;11489;50.834;6.752;2024-01-16T09:24:20;6.57;;;2.70;;
22644;SDS011;11489;50.834;6.752;2024-01-16T09:26:46;5.80;;;2.67;;
22644;SDS011;11489;50.834;6.752;2024-01-16T09:29:12;10.07;;;3.20;;
22644;SDS011;11489;50.834;6.752;2024-01-16T09:31:39;6.63;;;2.80;;
22644;SDS011;11489;50.834;6.752;2024-01-16T09:34:06;8.40;;;2.93;;
22644;SDS011;11489;50.834;6.752;2024-01-16T09:36:32;10.17;;;3.10;;
22644;SDS011;11489;50.834;6.752;2024-01-16T09:39:01;9.43;;;2.70;;
22644;SDS011;11489;50.834;6.752;2024-01-16T09:41:28;7.63;;;3.13;;
22644;SDS011;11489;50.834;6.752;2024-01-16T09:43:53;9.83;;;2.87;;
22644;SDS011;11489;50.834;6.752;2024-01-16T09:46:19;6.40;;;2.93;;
22644;SDS011;11489;50.834;6.752;2024-01-16T09:48:48;8.03;;;2.60;;
22644;SDS011;11489;50.834;6.752;2024-01-16T09:51:18;7.30;;;2.63;;
22644;SDS011;11489;50.834;6.752;2024-01-16T09:53:44;5.73;;;2.37;;
22644;SDS011;11489;50.834;6.752;2024-01-16T09:56:16;5.80;;;2.57;;
22644;SDS011;11489;50.834;6.752;2024-01-16T09:58:46;7.50;;;2.63;;
22644;SDS011;11489;50.834;6.752;2024-01-16T10:01:14;10.77;;;2.83;;
22644;SDS011;11489;50.834;6.752;2024-01-16T10:03:41;5.87;;;2.80;;
22644;SDS011;11489;50.834;6.752;2024-01-16T10:06:10;7.63;;;2.93;;
22644;SDS011;11489;50.834;6.752;2024-01-16T10:08:37;8.60;;;2.90;;
22644;SDS011;11489;50.834;6.752;2024-01-16T10:11:03;10.13;;;2.67;;
22644;SDS011;11489;50.834;6.752;2024-01-16T10:13:29;8.40;;;2.60;;
22644;SDS011;11489;50.834;6.752;2024-01-16T10:15:57;7.40;;;2.60;;
22644;SDS011;11489;50.834;6.752;2024-01-16T10:18:28;7.50;;;2.53;;
22644;SDS011;11489;50.834;6.752;2024-01-16T10:20:59;7.80;;;2.83;;
22644;SDS011;11489;50.834;6.752;2024-01-16T10:23:33;7.80;;;3.10;;
22644;SDS011;11489;50.834;6.752;2024-01-16T10:28:32;7.23;;;2.43;;
22644;SDS011;11489;50.834;6.752;2024-01-16T10:31:01;6.97;;;2.83;;
22644;SDS011;11489;50.834;6.752;2024-01-16T10:33:28;15.90;;;2.80;;
22644;SDS011;11489;50.834;6.752;2024-01-16T10:36:07;6.47;;;2.60;;
22644;SDS011;11489;50.834;6.752;2024-01-16T10:38:37;10.63;;;2.63;;
22644;SDS011;11489;50.834;6.752;2024-01-16T10:43:42;5.67;;;2.50;;
22644;SDS011;11489;50.834;6.752;2024-01-16T10:46:10;8.10;;;2.70;;
22644;SDS011;11489;50.834;6.752;2024-01-16T10:48:40;5.67;;;2.60;;
22644;SDS011;11489;50.834;6.752;2024-01-16T10:51:13;8.13;;;2.50;;
22644;SDS011;11489;50.834;6.752;2024-01-16T10:53:43;7.73;;;2.63;;
22644;SDS011;11489;50.834;6.752;2024-01-16T10:56:10;4.40;;;2.20;;
22644;SDS011;11489;50.834;6.752;2024-01-16T10:58:41;6.07;;;2.50;;
22644;SDS011;11489;50.834;6.752;2024-01-16T11:01:10;7.43;;;3.13;;
22644;SDS011;11489;50.834;6.752;2024-01-16T11:03:40;8.80;;;2.73;;
22644;SDS011;11489;50.834;6.752;2024-01-16T11:06:16;6.67;;;2.43;;
22644;SDS011;11489;50.834;6.752;2024-01-16T11:08:42;9.43;;;2.40;;
22644;SDS011;11489;50.834;6.752;2024-01-16T11:11:11;8.82;;;2.63;;
22644;SDS011;11489;50.834;6.752;2024-01-16T11:13:38;7.95;;;2.63;;
22644;SDS011;11489;50.834;6.752;2024-01-16T11:16:05;6.60;;;2.33;;
22644;SDS011;11489;50.834;6.752;2024-01-16T11:18:33;10.20;;;2.80;;
22644;SDS011;11489;50.834;6.752;2024-01-16T11:21:00;10.50;;;2.45;;
22644;SDS011;11489;50.834;6.752;2024-01-16T11:23:33;4.78;;;2.58;;
22644;SDS011;11489;50.834;6.752;2024-01-16T11:26:16;7.20;;;2.40;;
22644;SDS011;11489;50.834;6.752;2024-01-16T11:28:58;5.50;;;2.28;;
22644;SDS011;11489;50.834;6.752;2024-01-16T11:31:32;8.30;;;2.10;;
22644;SDS011;11489;50.834;6.752;2024-01-16T11:33:59;5.70;;;2.53;;
22644;SDS011;11489;50.834;6.752;2024-01-16T11:39:21;7.93;;;2.15;;
22644;SDS011;11489;50.834;6.752;2024-01-16T11:41:59;9.30;;;2.80;;
22644;SDS011;11489;50.834;6.752;2024-01-16T11:44:47;9.05;;;2.35;;
22644;SDS011;11489;50.834;6.752;2024-01-16T11:47:22;7.00;;;2.30;;
22644;SDS011;11489;50.834;6.752;2024-01-16T11:49:50;10.00;;;2.70;;
22644;SDS011;11489;50.834;6.752;2024-01-16T12:00:57;9.70;;;2.83;;
22644;SDS011;11489;50.834;6.752;2024-01-16T12:03:23;9.13;;;3.13;;
22644;SDS011;11489;50.834;6.752;2024-01-16T12:06:22;8.88;;;3.08;;
22644;SDS011;11489;50.834;6.752;2024-01-16T12:08:41;7.72;;;2.90;;
22644;SDS011;11489;50.834;6.752;2024-01-16T12:11:06;6.78;;;2.97;;
22644;SDS011;11489;50.834;6.752;2024-01-16T12:13:32;7.22;;;2.60;;
22644;SDS011;11489;50.834;6.752;2024-01-16T12:16:01;8.48;;;3.28;;
22644;SDS011;11489;50.834;6.752;2024-01-16T12:18:29;8.63;;;3.03;;
22644;SDS011;11489;50.834;6.752;2024-01-16T12:20:55;9.77;;;3.22;;
22644;SDS011;11489;50.834;6.752;2024-01-16T12:23:20;8.23;;;3.30;;
22644;SDS011;11489;50.834;6.752;2024-01-16T12:25:51;6.72;;;2.92;;
22644;SDS011;11489;50.834;6.752;2024-01-16T12:28:20;6.03;;;3.17;;
22644;SDS011;11489;50.834;6.752;2024-01-16T12:30:49;8.02;;;2.95;;
22644;SDS011;11489;50.834;6.752;2024-01-16T12:33:21;9.25;;;3.20;;
22644;SDS011;11489;50.834;6.752;2024-01-16T12:35:47;9.70;;;3.47;;
22644;SDS011;11489;50.834;6.752;2024-01-16T12:38:14;9.02;;;3.30;;
22644;SDS011;11489;50.834;6.752;2024-01-16T12:40:41;6.22;;;2.90;;
22644;SDS011;11489;50.834;6.752;2024-01-16T12:43:13;6.78;;;3.00;;
22644;SDS011;11489;50.834;6.752;2024-01-16T12:45:38;11.80;;;3.35;;
22644;SDS011;11489;50.834;6.752;2024-01-16T12:48:04;8.25;;;3.40;;
22644;SDS011;11489;50.834;6.752;2024-01-16T12:50:31;9.52;;;3.83;;
22644;SDS011;11489;50.834;6.752;2024-01-16T12:53:01;7.80;;;3.75;;
22644;SDS011;11489;50.834;6.752;2024-01-16T12:55:28;10.75;;;3.90;;
22644;SDS011;11489;50.834;6.752;2024-01-16T13:00:38;9.65;;;3.85;;
22644;SDS011;11489;50.834;6.752;2024-01-16T13:03:04;8.38;;;3.97;;
22644;SDS011;11489;50.834;6.752;2024-01-16T13:05:30;8.20;;;4.00;;
22644;SDS011;11489;50.834;6.752;2024-01-16T13:08:00;8.98;;;3.97;;
22644;SDS011;11489;50.834;6.752;2024-01-16T13:10:29;6.93;;;3.80;;
22644;SDS011;11489;50.834;6.752;2024-01-16T13:13:16;12.30;;;3.78;;
22644;SDS011;11489;50.834;6.752;2024-01-16T13:15:43;10.68;;;3.90;;
22644;SDS011;11489;50.834;6.752;2024-01-16T13:18:19;5.78;;;3.22;;
22644;SDS011;11489;50.834;6.752;2024-01-16T13:20:49;10.77;;;4.13;;
22644;SDS011;11489;50.834;6.752;2024-01-16T13:23:15;10.23;;;3.63;;
22644;SDS011;11489;50.834;6.752;2024-01-16T13:25:42;9.63;;;3.70;;
22644;SDS011;11489;50.834;6.752;2024-01-16T13:28:10;9.70;;;4.07;;
22644;SDS011;11489;50.834;6.752;2024-01-16T13:30:36;9.25;;;3.30;;
22644;SDS011;11489;50.834;6.752;2024-01-16T13:33:02;10.00;;;3.47;;
22644;SDS011;11489;50.834;6.752;2024-01-16T13:35:29;7.22;;;3.30;;
22644;SDS011;11489;50.834;6.752;2024-01-16T13:37:55;9.38;;;3.50;;
22644;SDS011;11489;50.834;6.752;2024-01-16T13:40:21;9.35;;;3.65;;
22644;SDS011;11489;50.834;6.752;2024-01-16T13:42:47;9.77;;;3.47;;
22644;SDS011;11489;50.834;6.752;2024-01-16T13:45:13;7.38;;;3.55;;
22644;SDS011;11489;50.834;6.752;2024-01-16T13:47:39;6.57;;;3.33;;
22644;SDS011;11489;50.834;6.752;2024-01-16T13:50:06;10.40;;;3.47;;
22644;SDS011;11489;50.834;6.752;2024-01-16T13:52:35;9.82;;;3.70;;
22644;SDS011;11489;50.834;6.752;2024-01-16T13:55:01;6.80;;;3.33;;
22644;SDS011;11489;50.834;6.752;2024-01-16T13:57:31;5.57;;;2.87;;
22644;SDS011;11489;50.834;6.752;2024-01-16T13:59:57;7.17;;;3.10;;
22644;SDS011;11489;50.834;6.752;2024-01-16T14:02:23;7.57;;;3.00;;
22644;SDS011;11489;50.834;6.752;2024-01-16T14:04:49;5.67;;;2.80;;
22644;SDS011;11489;50.834;6.752;2024-01-16T14:07:14;6.73;;;3.37;;
22644;SDS011;11489;50.834;6.752;2024-01-16T14:09:41;7.53;;;3.27;;
22644;SDS011;11489;50.834;6.752;2024-01-16T14:12:07;7.73;;;3.13;;
22644;SDS011;11489;50.834;6.752;2024-01-16T14:14:33;8.27;;;3.30;;
22644;SDS011;11489;50.834;6.752;2024-01-16T14:16:59;5.87;;;3.07;;
22644;SDS011;11489;50.834;6.752;2024-01-16T14:19:26;7.30;;;3.47;;
22644;SDS011;11489;50.834;6.752;2024-01-16T14:21:54;7.43;;;3.50;;
22644;SDS011;11489;50.834;6.752;2024-01-16T14:24:19;8.27;;;3.27;;
22644;SDS011;11489;50.834;6.752;2024-01-16T14:26:46;5.20;;;2.87;;
22644;SDS011;11489;50.834;6.752;2024-01-16T14:29:12;8.63;;;3.30;;
22644;SDS011;11489;50.834;6.752;2024-01-16T14:31:38;9.50;;;3.60;;
22644;SDS011;11489;50.834;6.752;2024-01-16T14:34:10;8.73;;;3.80;;
22644;SDS011;11489;50.834;6.752;2024-01-16T14:36:39;6.93;;;3.90;;
22644;SDS011;11489;50.834;6.752;2024-01-16T14:39:05;8.40;;;3.67;;
22644;SDS011;11489;50.834;6.752;2024-01-16T14:41:31;10.20;;;3.90;;
22644;SDS011;11489;50.834;6.752;2024-01-16T14:43:57;14.20;;;4.53;;
22644;SDS011;11489;50.834;6.752;2024-01-16T14:46:23;10.13;;;4.00;;
22644;SDS011;11489;50.834;6.752;2024-01-16T14:48:49;13.97;;;4.47;;
22644;SDS011;11489;50.834;6.752;2024-01-16T14:51:15;12.13;;;4.10;;
22644;SDS011;11489;50.834;6.752;2024-01-16T14:53:40;10.57;;;3.80;;
22644;SDS011;11489;50.834;6.752;2024-01-16T14:56:06;11.03;;;3.90;;
22644;SDS011;11489;50.834;6.752;2024-01-16T14:58:32;14.50;;;4.27;;
22644;SDS011;11489;50.834;6.752;2024-01-16T15:00:57;8.47;;;3.87;;